sensor_id;sensor_type;location;lat;lon;timestamp;pressure;altitude;pressure_sealevel;temperature;humidity
46724;BME280;32463;48.298;11.620;2024-01-30T00:00:10;97727.66;;;-1.48;100.00
46724;BME280;32463;48.298;11.620;2024-01-30T00:02:37;97725.50;;;-1.58;100.00
46724;BME280;32463;48.298;11.620;2024-01-30T00:05:03;97720.06;;;-1.74;100.00
46724;BME280;32463;48.298;11.620;2024-01-30T00:07:30;97725.44;;;-1.83;100.00
46724;BME280;32463;48.298;11.620;2024-01-30T00:09:56;97722.69;;;-1.77;100.00
46724;BME280;32463;48.298;11.620;2024-01-30T00:12:23;97717.53;;;-2.00;100.00
46724;BME280;32463;48.298;11.620;2024-01-30T00:14:49;97722.09;;;-2.12;100.00
46724;BME280;32463;48.298;11.620;2024-01-30T00:17:16;97722.31;;;-2.18;100.00
46724;BME280;32463;48.298;11.620;2024-01-30T00:19:42;97723.19;;;-2.19;100.00
46724;BME280;32463;48.298;11.620;2024-01-30T00:22:09;97721.59;;;-2.23;100.00
46724;BME280;32463;48.298;11.620;2024-01-30T00:24:36;97730.09;;;-2.24;100.00
46724;BME280;32463;48.298;11.620;2024-01-30T00:27:02;97727.78;;;-2.31;100.00
46724;BME280;32463;48.298;11.620;2024-01-30T00:29:29;97721.22;;;-2.39;100.00
46724;BME280;32463;48.298;11.620;2024-01-30T00:31:59;97728.78;;;-2.37;100.00
46724;BME280;32463;48.298;11.620;2024-01-30T00:34:25;97730.47;;;-2.36;100.00
46724;BME280;32463;48.298;11.620;2024-01-30T00:36:52;97724.00;;;-2.46;100.00
46724;BME280;32463;48.298;11.620;2024-01-30T00:39:19;97726.75;;;-2.54;100.00
46724;BME280;32463;48.298;11.620;2024-01-30T00:41:45;97733.59;;;-2.56;100.00
46724;BME280;32463;48.298;11.620;2024-01-30T00:44:12;97733.50;;;-2.53;100.00
46724;BME280;32463;48.298;11.620;2024-01-30T00:46:39;97729.13;;;-2.48;100.00
46724;BME280;32463;48.298;11.620;2024-01-30T00:49:06;97722.88;;;-2.38;100.00
46724;BME280;32463;48.298;11.620;2024-01-30T00:51:32;97720.59;;;-2.45;100.00
46724;BME280;32463;48.298;11.620;2024-01-30T00:53:59;97720.13;;;-2.58;100.00
46724;BME280;32463;48.298;11.620;2024-01-30T00:56:25;97719.97;;;-2.53;100.00
46724;BME280;32463;48.298;11.620;2024-01-30T00:58:52;97723.66;;;-2.63;100.00
46724;BME280;32463;48.298;11.620;2024-01-30T01:01:18;97724.03;;;-2.76;100.00
46724;BME280;32463;48.298;11.620;2024-01-30T01:03:45;97724.91;;;-2.77;100.00
46724;BME280;32463;48.298;11.620;2024-01-30T01:06:11;97723.22;;;-2.78;100.00
46724;BME280;32463;48.298;11.620;2024-01-30T01:08:38;97722.47;;;-2.81;100.00
46724;BME280;32463;48.298;11.620;2024-01-30T01:11:04;97723.13;;;-2.75;100.00
46724;BME280;32463;48.298;11.620;2024-01-30T01:13:31;97728.19;;;-2.75;100.00
46724;BME280;32463;48.298;11.620;2024-01-30T01:15:57;97716.19;;;-2.69;100.00
46724;BME280;32463;48.298;11.620;2024-01-30T01:18:24;97722.69;;;-2.59;100.00
46724;BME280;32463;48.298;11.620;2024-01-30T01:20:50;97724.59;;;-2.67;100.00
46724;BME280;32463;48.298;11.620;2024-01-30T01:23:17;97729.97;;;-2.77;100.00
46724;BME280;32463;48.298;11.620;2024-01-30T01:25:44;97727.50;;;-2.80;100.00
46724;BME280;32463;48.298;11.620;2024-01-30T01:28:10;97724.97;;;-2.80;100.00
46724;BME280;32463;48.298;11.620;2024-01-30T01:30:36;97730.06;;;-2.80;100.00
46724;BME280;32463;48.298;11.620;2024-01-30T01:33:03;97720.16;;;-2.89;100.00
46724;BME280;32463;48.298;11.620;2024-01-30T01:35:29;97731.97;;;-2.88;100.00
46724;BME280;32463;48.298;11.620;2024-01-30T01:37:56;97725.34;;;-2.93;100.00
46724;BME280;32463;48.298;11.620;2024-01-30T01:40:25;97720.38;;;-2.98;100.00
46724;BME280;32463;48.298;11.620;2024-01-30T01:42:52;97725.47;;;-2.98;100.00
46724;BME280;32463;48.298;11.620;2024-01-30T01:45:20;97722.97;;;-2.99;100.00
46724;BME280;32463;48.298;11.620;2024-01-30T01:47:53;97721.34;;;-3.02;100.00
46724;BME280;32463;48.298;11.620;2024-01-30T01:50:20;97719.69;;;-3.03;100.00
46724;BME280;32463;48.298;11.620;2024-01-30T01:52:48;97716.31;;;-3.03;100.00
46724;BME280;32463;48.298;11.620;2024-01-30T01:55:15;97717.25;;;-3.06;100.00
46724;BME280;32463;48.298;11.620;2024-01-30T01:57:42;97716.53;;;-3.11;100.00
46724;BME280;32463;48.298;11.620;2024-01-30T02:00:10;97716.50;;;-3.10;100.00
46724;BME280;32463;48.298;11.620;2024-01-30T02:02:38;97713.94;;;-3.08;100.00
46724;BME280;32463;48.298;11.620;2024-01-30T02:05:05;97717.44;;;-3.14;100.00
46724;BME280;32463;48.298;11.620;2024-01-30T02:07:32;97717.41;;;-3.12;100.00
46724;BME280;32463;48.298;11.620;2024-01-30T02:09:58;97722.41;;;-3.09;100.00
46724;BME280;32463;48.298;11.620;2024-01-30T02:12:25;97725.75;;;-3.07;100.00
46724;BME280;32463;48.298;11.620;2024-01-30T02:14:52;97722.22;;;-3.03;100.00
46724;BME280;32463;48.298;11.620;2024-01-30T02:17:20;97730.69;;;-3.04;100.00
46724;BME280;32463;48.298;11.620;2024-01-30T02:19:49;97727.22;;;-3.00;100.00
46724;BME280;32463;48.298;11.620;2024-01-30T02:22:16;97727.41;;;-3.06;100.00
46724;BME280;32463;48.298;11.620;2024-01-30T02:24:43;97720.00;;;-3.14;100.00
46724;BME280;32463;48.298;11.620;2024-01-30T02:27:09;97724.16;;;-3.11;100.00
46724;BME280;32463;48.298;11.620;2024-01-30T02:29:37;97716.63;;;-3.14;100.00
46724;BME280;32463;48.298;11.620;2024-01-30T02:32:04;97725.81;;;-3.10;100.00
46724;BME280;32463;48.298;11.620;2024-01-30T02:34:31;97716.59;;;-3.13;100.00
46724;BME280;32463;48.298;11.620;2024-01-30T02:36:57;97717.63;;;-3.20;100.00
46724;BME280;32463;48.298;11.620;2024-01-30T02:39:24;97719.47;;;-3.26;100.00
46724;BME280;32463;48.298;11.620;2024-01-30T02:41:50;97718.44;;;-3.19;100.00
46724;BME280;32463;48.298;11.620;2024-01-30T02:44:17;97715.03;;;-3.18;100.00
46724;BME280;32463;48.298;11.620;2024-01-30T02:46:44;97716.00;;;-3.22;100.00
46724;BME280;32463;48.298;11.620;2024-01-30T02:49:10;97712.72;;;-3.27;100.00
46724;BME280;32463;48.298;11.620;2024-01-30T02:51:37;97707.66;;;-3.27;100.00
46724;BME280;32463;48.298;11.620;2024-01-30T02:54:04;97704.41;;;-3.32;100.00
46724;BME280;32463;48.298;11.620;2024-01-30T02:56:30;97705.13;;;-3.27;100.00
46724;BME280;32463;48.298;11.620;2024-01-30T02:58:57;97698.47;;;-3.31;100.00
46724;BME280;32463;48.298;11.620;2024-01-30T03:01:23;97696.69;;;-3.28;100.00
46724;BME280;32463;48.298;11.620;2024-01-30T03:03:50;97695.84;;;-3.28;100.00
46724;BME280;32463;48.298;11.620;2024-01-30T03:06:16;97699.22;;;-3.28;100.00
46724;BME280;32463;48.298;11.620;2024-01-30T03:08:45;97699.09;;;-3.23;100.00
46724;BME280;32463;48.298;11.620;2024-01-30T03:11:11;97703.22;;;-3.19;100.00
46724;BME280;32463;48.298;11.620;2024-01-30T03:13:38;97698.88;;;-3.14;100.00
46724;BME280;32463;48.298;11.620;2024-01-30T03:16:05;97696.59;;;-3.25;100.00
46724;BME280;32463;48.298;11.620;2024-01-30T03:18:32;97699.34;;;-3.32;100.00
46724;BME280;32463;48.298;11.620;2024-01-30T03:20:58;97692.53;;;-3.30;100.00
46724;BME280;32463;48.298;11.620;2024-01-30T03:23:25;97696.00;;;-3.34;100.00
46724;BME280;32463;48.298;11.620;2024-01-30T03:25:51;97696.16;;;-3.39;100.00
46724;BME280;32463;48.298;11.620;2024-01-30T03:28:18;97692.75;;;-3.38;100.00
46724;BME280;32463;48.298;11.620;2024-01-30T03:30:44;97696.13;;;-3.37;100.00
46724;BME280;32463;48.298;11.620;2024-01-30T03:33:11;97691.06;;;-3.37;100.00
46724;BME280;32463;48.298;11.620;2024-01-30T03:35:37;97691.16;;;-3.42;100.00
46724;BME280;32463;48.298;11.620;2024-01-30T03:38:04;97686.06;;;-3.41;100.00
46724;BME280;32463;48.298;11.620;2024-01-30T03:40:30;97690.22;;;-3.38;100.00
46724;BME280;32463;48.298;11.620;2024-01-30T03:42:57;97689.38;;;-3.38;100.00
46724;BME280;32463;48.298;11.620;2024-01-30T03:45:23;97689.47;;;-3.42;100.00
46724;BME280;32463;48.298;11.620;2024-01-30T03:47:49;97697.94;;;-3.43;100.00
46724;BME280;32463;48.298;11.620;2024-01-30T03:50:16;97691.19;;;-3.44;100.00
46724;BME280;32463;48.298;11.620;2024-01-30T03:52:42;97689.50;;;-3.43;100.00
46724;BME280;32463;48.298;11.620;2024-01-30T03:55:09;97689.53;;;-3.45;100.00
46724;BME280;32463;48.298;11.620;2024-01-30T03:57:35;97682.81;;;-3.46;100.00
46724;BME280;32463;48.298;11.620;2024-01-30T04:00:02;97690.50;;;-3.49;100.00
46724;BME280;32463;48.298;11.620;2024-01-30T04:02:30;97684.63;;;-3.51;100.00
46724;BME280;32463;48.298;11.620;2024-01-30T04:04:57;97686.31;;;-3.51;100.00
46724;BME280;32463;48.298;11.620;2024-01-30T04:07:23;97676.16;;;-3.50;100.00
46724;BME280;32463;48.298;11.620;2024-01-30T04:09:50;97684.69;;;-3.54;100.00
46724;BME280;32463;48.298;11.620;2024-01-30T04:12:16;97691.59;;;-3.59;100.00
46724;BME280;32463;48.298;11.620;2024-01-30T04:14:42;97688.09;;;-3.55;100.00
46724;BME280;32463;48.298;11.620;2024-01-30T04:17:09;97695.00;;;-3.60;100.00
46724;BME280;32463;48.298;11.620;2024-01-30T04:19:38;97691.72;;;-3.65;100.00
46724;BME280;32463;48.298;11.620;2024-01-30T04:22:05;97695.28;;;-3.70;100.00
46724;BME280;32463;48.298;11.620;2024-01-30T04:24:31;97688.47;;;-3.68;100.00
46724;BME280;32463;48.298;11.620;2024-01-30T04:26:59;97696.72;;;-3.62;100.00
46724;BME280;32463;48.298;11.620;2024-01-30T04:29:25;97695.06;;;-3.63;100.00
46724;BME280;32463;48.298;11.620;2024-01-30T04:31:52;97695.94;;;-3.64;100.00
46724;BME280;32463;48.298;11.620;2024-01-30T04:34:18;97694.22;;;-3.63;100.00
46724;BME280;32463;48.298;11.620;2024-01-30T04:36:45;97696.75;;;-3.63;100.00
46724;BME280;32463;48.298;11.620;2024-01-30T04:39:12;97700.22;;;-3.66;100.00
46724;BME280;32463;48.298;11.620;2024-01-30T04:41:38;97693.50;;;-3.67;100.00
46724;BME280;32463;48.298;11.620;2024-01-30T04:44:05;97699.59;;;-3.74;100.00
46724;BME280;32463;48.298;11.620;2024-01-30T04:46:32;97691.84;;;-3.68;100.00
46724;BME280;32463;48.298;11.620;2024-01-30T04:49:00;97693.56;;;-3.70;100.00
46724;BME280;32463;48.298;11.620;2024-01-30T04:51:26;97688.59;;;-3.73;100.00
46724;BME280;32463;48.298;11.620;2024-01-30T04:53:53;97695.38;;;-3.75;100.00
46724;BME280;32463;48.298;11.620;2024-01-30T04:56:19;97701.44;;;-3.81;100.00
46724;BME280;32463;48.298;11.620;2024-01-30T04:58:46;97702.25;;;-3.80;100.00
46724;BME280;32463;48.298;11.620;2024-01-30T05:01:16;97700.69;;;-3.84;100.00
46724;BME280;32463;48.298;11.620;2024-01-30T05:03:44;97697.28;;;-3.83;100.00
46724;BME280;32463;48.298;11.620;2024-01-30T05:06:10;97703.31;;;-3.89;100.00
46724;BME280;32463;48.298;11.620;2024-01-30T05:08:37;97698.19;;;-3.86;100.00
46724;BME280;32463;48.298;11.620;2024-01-30T05:11:05;97700.75;;;-3.87;100.00
46724;BME280;32463;48.298;11.620;2024-01-30T05:13:31;97699.00;;;-3.85;100.00
46724;BME280;32463;48.298;11.620;2024-01-30T05:15:58;97705.81;;;-3.87;100.00
46724;BME280;32463;48.298;11.620;2024-01-30T05:18:25;97704.94;;;-3.86;100.00
46724;BME280;32463;48.298;11.620;2024-01-30T05:20:51;97712.63;;;-3.89;100.00
46724;BME280;32463;48.298;11.620;2024-01-30T05:23:18;97709.22;;;-3.88;100.00
46724;BME280;32463;48.298;11.620;2024-01-30T05:25:44;97705.00;;;-3.89;100.00
46724;BME280;32463;48.298;11.620;2024-01-30T05:28:11;97705.06;;;-3.91;100.00
46724;BME280;32463;48.298;11.620;2024-01-30T05:30:37;97703.47;;;-3.95;100.00
46724;BME280;32463;48.298;11.620;2024-01-30T05:33:04;97710.88;;;-3.87;100.00
46724;BME280;32463;48.298;11.620;2024-01-30T05:35:30;97700.75;;;-3.87;100.00
46724;BME280;32463;48.298;11.620;2024-01-30T05:37:57;97706.47;;;-3.79;100.00
46724;BME280;32463;48.298;11.620;2024-01-30T05:40:23;97705.34;;;-3.67;100.00
46724;BME280;32463;48.298;11.620;2024-01-30T05:42:50;97706.06;;;-3.64;100.00
46724;BME280;32463;48.298;11.620;2024-01-30T05:45:16;97708.72;;;-3.67;100.00
46724;BME280;32463;48.298;11.620;2024-01-30T05:47:43;97710.44;;;-3.69;100.00
46724;BME280;32463;48.298;11.620;2024-01-30T05:50:09;97712.25;;;-3.74;100.00
46724;BME280;32463;48.298;11.620;2024-01-30T05:52:36;97708.53;;;-3.61;100.00
46724;BME280;32463;48.298;11.620;2024-01-30T05:55:03;97716.09;;;-3.59;100.00
46724;BME280;32463;48.298;11.620;2024-01-30T05:57:29;97711.78;;;-3.56;100.00
46724;BME280;32463;48.298;11.620;2024-01-30T05:59:56;97718.78;;;-3.65;100.00
46724;BME280;32463;48.298;11.620;2024-01-30T06:02:22;97711.19;;;-3.65;100.00
46724;BME280;32463;48.298;11.620;2024-01-30T06:04:49;97722.16;;;-3.65;100.00
46724;BME280;32463;48.298;11.620;2024-01-30T06:07:16;97711.09;;;-3.62;100.00
46724;BME280;32463;48.298;11.620;2024-01-30T06:09:43;97712.19;;;-3.71;100.00
46724;BME280;32463;48.298;11.620;2024-01-30T06:12:11;97710.44;;;-3.69;100.00
46724;BME280;32463;48.298;11.620;2024-01-30T06:14:38;97722.81;;;-3.58;100.00
46724;BME280;32463;48.298;11.620;2024-01-30T06:17:05;97723.84;;;-3.65;100.00
46724;BME280;32463;48.298;11.620;2024-01-30T06:19:32;97717.91;;;-3.64;100.00
46724;BME280;32463;48.298;11.620;2024-01-30T06:21:58;97730.47;;;-3.60;100.00
46724;BME280;32463;48.298;11.620;2024-01-30T06:24:25;97717.66;;;-3.54;100.00
46724;BME280;32463;48.298;11.620;2024-01-30T06:26:53;97723.88;;;-3.33;100.00
46724;BME280;32463;48.298;11.620;2024-01-30T06:29:19;97724.78;;;-3.35;100.00
46724;BME280;32463;48.298;11.620;2024-01-30T06:31:46;97727.41;;;-3.38;100.00
46724;BME280;32463;48.298;11.620;2024-01-30T06:34:12;97738.50;;;-3.43;100.00
46724;BME280;32463;48.298;11.620;2024-01-30T06:36:39;97732.84;;;-3.54;100.00
46724;BME280;32463;48.298;11.620;2024-01-30T06:39:06;97742.19;;;-3.56;100.00
46724;BME280;32463;48.298;11.620;2024-01-30T06:41:33;97748.94;;;-3.55;100.00
46724;BME280;32463;48.298;11.620;2024-01-30T06:44:02;97750.75;;;-3.60;100.00
46724;BME280;32463;48.298;11.620;2024-01-30T06:46:29;97748.28;;;-3.63;100.00
46724;BME280;32463;48.298;11.620;2024-01-30T06:48:55;97758.56;;;-3.67;100.00
46724;BME280;32463;48.298;11.620;2024-01-30T06:51:22;97750.13;;;-3.68;100.00
46724;BME280;32463;48.298;11.620;2024-01-30T06:53:48;97747.41;;;-3.62;100.00
46724;BME280;32463;48.298;11.620;2024-01-30T06:56:15;97755.13;;;-3.66;100.00
46724;BME280;32463;48.298;11.620;2024-01-30T06:58:49;97747.47;;;-3.65;100.00
46724;BME280;32463;48.298;11.620;2024-01-30T07:01:16;97752.56;;;-3.65;100.00
46724;BME280;32463;48.298;11.620;2024-01-30T07:03:43;97747.47;;;-3.65;100.00
46724;BME280;32463;48.298;11.620;2024-01-30T07:06:09;97749.97;;;-3.63;100.00
46724;BME280;32463;48.298;11.620;2024-01-30T07:08:36;97752.66;;;-3.68;100.00
46724;BME280;32463;48.298;11.620;2024-01-30T07:11:07;97750.66;;;-3.57;100.00
46724;BME280;32463;48.298;11.620;2024-01-30T07:13:34;97755.53;;;-3.48;100.00
46724;BME280;32463;48.298;11.620;2024-01-30T07:16:01;97748.56;;;-3.40;100.00
46724;BME280;32463;48.298;11.620;2024-01-30T07:18:27;97751.63;;;-3.28;100.00
46724;BME280;32463;48.298;11.620;2024-01-30T07:20:53;97740.94;;;-3.07;100.00
46724;BME280;32463;48.298;11.620;2024-01-30T07:23:20;97745.84;;;-3.01;100.00
46724;BME280;32463;48.298;11.620;2024-01-30T07:25:47;97750.09;;;-3.01;100.00
46724;BME280;32463;48.298;11.620;2024-01-30T07:28:15;97748.28;;;-2.98;100.00
46724;BME280;32463;48.298;11.620;2024-01-30T07:30:43;97755.75;;;-2.92;100.00
46724;BME280;32463;48.298;11.620;2024-01-30T07:33:09;97754.63;;;-2.82;100.00
46724;BME280;32463;48.298;11.620;2024-01-30T07:35:36;97759.63;;;-2.79;100.00
46724;BME280;32463;48.298;11.620;2024-01-30T07:38:03;97757.69;;;-2.71;100.00
46724;BME280;32463;48.298;11.620;2024-01-30T07:40:29;97761.81;;;-2.66;100.00
46724;BME280;32463;48.298;11.620;2024-01-30T07:42:56;97765.06;;;-2.61;100.00
46724;BME280;32463;48.298;11.620;2024-01-30T07:45:22;97769.97;;;-2.55;100.00
46724;BME280;32463;48.298;11.620;2024-01-30T07:47:50;97765.56;;;-2.49;100.00
46724;BME280;32463;48.298;11.620;2024-01-30T07:50:17;97769.50;;;-2.40;100.00
46724;BME280;32463;48.298;11.620;2024-01-30T07:52:44;97774.25;;;-2.28;100.00
46724;BME280;32463;48.298;11.620;2024-01-30T07:55:11;97769.66;;;-2.15;100.00
46724;BME280;32463;48.298;11.620;2024-01-30T07:57:40;97770.09;;;-2.03;100.00
46724;BME280;32463;48.298;11.620;2024-01-30T08:00:08;97776.44;;;-1.88;100.00
46724;BME280;32463;48.298;11.620;2024-01-30T08:02:35;97772.66;;;-1.76;100.00
46724;BME280;32463;48.298;11.620;2024-01-30T08:05:01;97773.94;;;-1.63;100.00
46724;BME280;32463;48.298;11.620;2024-01-30T08:07:28;97779.50;;;-1.52;100.00
46724;BME280;32463;48.298;11.620;2024-01-30T08:09:54;97778.53;;;-1.48;100.00
46724;BME280;32463;48.298;11.620;2024-01-30T08:12:21;97786.56;;;-1.33;100.00
46724;BME280;32463;48.298;11.620;2024-01-30T08:14:47;97782.84;;;-1.23;100.00
46724;BME280;32463;48.298;11.620;2024-01-30T08:17:14;97786.66;;;-1.12;100.00
46724;BME280;32463;48.298;11.620;2024-01-30T08:19:40;97784.59;;;-1.00;100.00
46724;BME280;32463;48.298;11.620;2024-01-30T08:22:07;97787.44;;;-0.85;100.00
46724;BME280;32463;48.298;11.620;2024-01-30T08:24:33;97782.72;;;-0.71;100.00
46724;BME280;32463;48.298;11.620;2024-01-30T08:27:00;97782.16;;;-0.55;100.00
46724;BME280;32463;48.298;11.620;2024-01-30T08:29:27;97778.06;;;-0.36;100.00
46724;BME280;32463;48.298;11.620;2024-01-30T08:31:54;97778.53;;;-0.26;100.00
46724;BME280;32463;48.298;11.620;2024-01-30T08:34:21;97775.25;;;-0.07;100.00
46724;BME280;32463;48.298;11.620;2024-01-30T08:36:48;97776.44;;;0.07;100.00
46724;BME280;32463;48.298;11.620;2024-01-30T08:39:14;97775.03;;;0.21;100.00
46724;BME280;32463;48.298;11.620;2024-01-30T08:41:40;97776.31;;;0.31;100.00
46724;BME280;32463;48.298;11.620;2024-01-30T08:44:07;97779.09;;;0.47;100.00
46724;BME280;32463;48.298;11.620;2024-01-30T08:46:36;97774.13;;;0.64;100.00
46724;BME280;32463;48.298;11.620;2024-01-30T08:49:02;97761.78;;;0.76;100.00
46724;BME280;32463;48.298;11.620;2024-01-30T08:51:29;97764.59;;;0.90;100.00
46724;BME280;32463;48.298;11.620;2024-01-30T08:53:55;97768.91;;;1.08;100.00
46724;BME280;32463;48.298;11.620;2024-01-30T08:56:22;97763.81;;;1.08;100.00
46724;BME280;32463;48.298;11.620;2024-01-30T08:58:48;97765.22;;;1.15;100.00
46724;BME280;32463;48.298;11.620;2024-01-30T09:01:15;97773.09;;;1.29;100.00
46724;BME280;32463;48.298;11.620;2024-01-30T09:03:41;97771.94;;;1.55;100.00
46724;BME280;32463;48.298;11.620;2024-01-30T09:06:10;97774.84;;;1.85;100.00
46724;BME280;32463;48.298;11.620;2024-01-30T09:08:37;97775.59;;;2.25;100.00
46724;BME280;32463;48.298;11.620;2024-01-30T09:11:12;97778.88;;;2.97;100.00
46724;BME280;32463;48.298;11.620;2024-01-30T09:13:39;97783.75;;;3.52;100.00
46724;BME280;32463;48.298;11.620;2024-01-30T09:16:06;97780.69;;;3.94;100.00
46724;BME280;32463;48.298;11.620;2024-01-30T09:18:32;97780.47;;;4.29;100.00
46724;BME280;32463;48.298;11.620;2024-01-30T09:20:59;97786.09;;;4.51;100.00
46724;BME280;32463;48.298;11.620;2024-01-30T09:23:29;97780.88;;;4.83;100.00
46724;BME280;32463;48.298;11.620;2024-01-30T09:25:55;97782.47;;;4.99;100.00
46724;BME280;32463;48.298;11.620;2024-01-30T09:28:22;97778.28;;;5.27;100.00
46724;BME280;32463;48.298;11.620;2024-01-30T09:30:48;97773.66;;;5.48;100.00
46724;BME280;32463;48.298;11.620;2024-01-30T09:33:15;97785.84;;;5.72;100.00
46724;BME280;32463;48.298;11.620;2024-01-30T09:35:42;97782.63;;;5.97;100.00
46724;BME280;32463;48.298;11.620;2024-01-30T09:38:08;97783.03;;;6.45;100.00
46724;BME280;32463;48.298;11.620;2024-01-30T09:40:35;97778.88;;;6.96;100.00
46724;BME280;32463;48.298;11.620;2024-01-30T09:43:03;97780.84;;;7.43;100.00
46724;BME280;32463;48.298;11.620;2024-01-30T09:45:29;97774.31;;;7.89;100.00
46724;BME280;32463;48.298;11.620;2024-01-30T09:47:59;97791.50;;;8.50;100.00
46724;BME280;32463;48.298;11.620;2024-01-30T09:50:26;97781.09;;;8.98;100.00
46724;BME280;32463;48.298;11.620;2024-01-30T09:52:55;97779.31;;;9.56;91.03
46724;BME280;32463;48.298;11.620;2024-01-30T09:55:21;97785.56;;;10.31;84.25
46724;BME280;32463;48.298;11.620;2024-01-30T09:57:48;97775.78;;;10.67;78.83
46724;BME280;32463;48.298;11.620;2024-01-30T10:00:15;97777.84;;;11.05;66.50
46724;BME280;32463;48.298;11.620;2024-01-30T10:02:42;97775.13;;;11.27;63.17
46724;BME280;32463;48.298;11.620;2024-01-30T10:05:10;97771.94;;;11.44;62.45
46724;BME280;32463;48.298;11.620;2024-01-30T10:07:38;97768.47;;;11.65;61.84
46724;BME280;32463;48.298;11.620;2024-01-30T10:10:05;97774.81;;;11.72;60.93
46724;BME280;32463;48.298;11.620;2024-01-30T10:12:32;97763.72;;;12.00;57.77
46724;BME280;32463;48.298;11.620;2024-01-30T10:14:59;97763.88;;;12.08;59.27
46724;BME280;32463;48.298;11.620;2024-01-30T10:17:25;97761.59;;;12.25;57.08
46724;BME280;32463;48.298;11.620;2024-01-30T10:19:52;97753.16;;;12.71;56.43
46724;BME280;32463;48.298;11.620;2024-01-30T10:22:19;97760.00;;;13.01;55.37
46724;BME280;32463;48.298;11.620;2024-01-30T10:24:46;97753.59;;;13.52;53.21
46724;BME280;32463;48.298;11.620;2024-01-30T10:27:13;97746.88;;;13.86;52.17
46724;BME280;32463;48.298;11.620;2024-01-30T10:29:39;97748.63;;;14.40;49.44
46724;BME280;32463;48.298;11.620;2024-01-30T10:32:06;97736.44;;;14.76;49.12
46724;BME280;32463;48.298;11.620;2024-01-30T10:34:32;97734.44;;;15.14;48.02
46724;BME280;32463;48.298;11.620;2024-01-30T10:37:01;97736.91;;;15.67;46.82
46724;BME280;32463;48.298;11.620;2024-01-30T10:39:36;97722.75;;;16.20;44.43
46724;BME280;32463;48.298;11.620;2024-01-30T10:42:05;97718.91;;;16.73;43.23
46724;BME280;32463;48.298;11.620;2024-01-30T10:47:28;97703.00;;;17.15;42.70
46724;BME280;32463;48.298;11.620;2024-01-30T10:49:55;97697.97;;;17.61;41.43
46724;BME280;32463;48.298;11.620;2024-01-30T10:52:25;97696.13;;;17.77;41.47
46724;BME280;32463;48.298;11.620;2024-01-30T10:54:55;97695.91;;;17.95;40.99
46724;BME280;32463;48.298;11.620;2024-01-30T10:57:28;97692.66;;;18.16;39.91
46724;BME280;32463;48.298;11.620;2024-01-30T10:59:58;97689.47;;;17.59;41.62
46724;BME280;32463;48.298;11.620;2024-01-30T11:02:26;97687.44;;;17.77;41.30
46724;BME280;32463;48.298;11.620;2024-01-30T11:04:59;97689.06;;;18.17;40.92
46724;BME280;32463;48.298;11.620;2024-01-30T11:07:27;97676.56;;;18.19;39.52
46724;BME280;32463;48.298;11.620;2024-01-30T11:12:24;97676.84;;;17.70;40.17
46724;BME280;32463;48.298;11.620;2024-01-30T11:15:08;97670.69;;;18.17;39.66
46724;BME280;32463;48.298;11.620;2024-01-30T11:20:28;97665.91;;;19.92;37.03
46724;BME280;32463;48.298;11.620;2024-01-30T11:22:56;97668.88;;;20.82;35.81
46724;BME280;32463;48.298;11.620;2024-01-30T11:25:24;97654.53;;;21.47;34.26
46724;BME280;32463;48.298;11.620;2024-01-30T11:27:53;97648.16;;;22.37;33.25
46724;BME280;32463;48.298;11.620;2024-01-30T11:30:30;97641.94;;;22.84;32.39
46724;BME280;32463;48.298;11.620;2024-01-30T11:33:10;97639.28;;;22.98;31.27
46724;BME280;32463;48.298;11.620;2024-01-30T11:38:04;97638.63;;;23.93;30.23
46724;BME280;32463;48.298;11.620;2024-01-30T11:40:32;97619.28;;;24.31;29.51
46724;BME280;32463;48.298;11.620;2024-01-30T11:43:00;97624.22;;;24.77;28.93
46724;BME280;32463;48.298;11.620;2024-01-30T11:45:27;97624.31;;;24.70;27.76
46724;BME280;32463;48.298;11.620;2024-01-30T11:47:54;97618.09;;;24.27;27.76
46724;BME280;32463;48.298;11.620;2024-01-30T11:50:21;97624.81;;;23.20;27.09
46724;BME280;32463;48.298;11.620;2024-01-30T11:52:48;97623.22;;;21.10;30.01
46724;BME280;32463;48.298;11.620;2024-01-30T11:55:15;97629.97;;;20.84;30.15
46724;BME280;32463;48.298;11.620;2024-01-30T11:57:42;97624.09;;;21.51;30.64
46724;BME280;32463;48.298;11.620;2024-01-30T12:00:17;97618.31;;;20.72;30.85
46724;BME280;32463;48.298;11.620;2024-01-30T12:02:48;97616.09;;;19.55;31.78
46724;BME280;32463;48.298;11.620;2024-01-30T12:05:15;97624.41;;;18.39;33.31
46724;BME280;32463;48.298;11.620;2024-01-30T12:07:45;97618.84;;;18.65;33.77
46724;BME280;32463;48.298;11.620;2024-01-30T12:10:15;97617.75;;;18.51;34.08
46724;BME280;32463;48.298;11.620;2024-01-30T12:12:45;97608.47;;;18.40;34.11
46724;BME280;32463;48.298;11.620;2024-01-30T12:15:12;97612.88;;;18.86;34.33
46724;BME280;32463;48.298;11.620;2024-01-30T12:17:39;97605.63;;;19.46;33.13
46724;BME280;32463;48.298;11.620;2024-01-30T12:20:07;97599.25;;;20.28;31.98
46724;BME280;32463;48.298;11.620;2024-01-30T12:22:38;97597.50;;;21.46;30.90
46724;BME280;32463;48.298;11.620;2024-01-30T12:25:07;97597.59;;;21.73;28.25
46724;BME280;32463;48.298;11.620;2024-01-30T12:27:34;97583.44;;;21.87;28.67
46724;BME280;32463;48.298;11.620;2024-01-30T12:30:02;97582.53;;;22.54;28.12
46724;BME280;32463;48.298;11.620;2024-01-30T12:32:34;97583.53;;;22.73;27.72
46724;BME280;32463;48.298;11.620;2024-01-30T12:35:01;97580.28;;;22.77;27.69
46724;BME280;32463;48.298;11.620;2024-01-30T12:37:27;97577.22;;;22.67;27.96
46724;BME280;32463;48.298;11.620;2024-01-30T12:39:54;97570.53;;;22.32;27.85
46724;BME280;32463;48.298;11.620;2024-01-30T12:42:21;97574.69;;;20.98;29.17
46724;BME280;32463;48.298;11.620;2024-01-30T12:44:49;97571.31;;;20.48;30.12
46724;BME280;32463;48.298;11.620;2024-01-30T12:47:15;97570.47;;;20.26;30.67
46724;BME280;32463;48.298;11.620;2024-01-30T12:49:45;97571.44;;;20.40;30.75
46724;BME280;32463;48.298;11.620;2024-01-30T12:52:13;97570.03;;;20.65;30.44